createdAt,value
2018-08-23T00:00:53.022Z,21.73
2018-08-23T00:01:54.399Z,21.73
2018-08-23T00:02:54.837Z,21.73
2018-08-23T00:03:55.176Z,21.72
2018-08-23T00:04:55.492Z,21.72
2018-08-23T00:05:56.690Z,21.71
2018-08-23T00:06:55.925Z,21.71
2018-08-23T00:07:56.295Z,21.71
2018-08-23T00:08:56.609Z,21.70
2018-08-23T00:09:56.895Z,21.69
2018-08-23T00:10:57.281Z,21.69
2018-08-23T00:11:57.578Z,21.68
2018-08-23T00:12:57.938Z,21.67
2018-08-23T00:13:58.269Z,21.66
2018-08-23T00:14:57.591Z,21.65
2018-08-23T00:15:58.927Z,21.64
2018-08-23T00:16:59.591Z,21.62
2018-08-23T00:17:59.891Z,21.61
2018-08-23T00:19:00.235Z,21.60
2018-08-23T00:20:00.530Z,21.58
2018-08-23T00:21:00.793Z,21.57
2018-08-23T00:22:01.030Z,21.56
2018-08-23T00:23:01.320Z,21.55
2018-08-23T00:24:01.800Z,21.54
2018-08-23T00:25:02.080Z,21.53
2018-08-23T00:26:02.556Z,21.52
2018-08-23T00:27:02.927Z,21.51
2018-08-23T00:28:02.105Z,21.51
2018-08-23T00:29:03.352Z,21.50
2018-08-23T00:30:03.602Z,21.49
2018-08-23T00:31:03.798Z,21.47
2018-08-23T00:32:04.163Z,21.46
2018-08-23T00:33:04.391Z,21.45
2018-08-23T00:34:04.599Z,21.44
2018-08-23T00:35:04.971Z,21.43
2018-08-23T00:36:05.222Z,21.41
2018-08-23T00:37:05.447Z,21.40
2018-08-23T00:38:05.734Z,21.39
2018-08-23T00:39:06.175Z,21.38
2018-08-23T00:40:06.431Z,21.37
2018-08-23T00:41:06.820Z,21.36
2018-08-23T00:42:07.038Z,21.35
2018-08-23T00:42:15.183Z,21.12
2018-08-23T00:43:16.799Z,21.12
2018-08-23T00:44:17.072Z,21.11
2018-08-23T00:45:17.707Z,21.10
2018-08-23T00:46:18.101Z,21.09
2018-08-23T00:47:18.339Z,21.09
2018-08-23T00:48:18.585Z,21.09
2018-08-23T00:49:18.916Z,21.08
2018-08-23T00:50:19.119Z,21.08
2018-08-23T00:51:19.477Z,21.08
2018-08-23T00:52:19.737Z,21.07
2018-08-23T00:53:20.313Z,21.07
2018-08-23T00:54:20.662Z,21.07
2018-08-23T00:55:19.817Z,21.06
2018-08-23T00:56:20.019Z,21.06
2018-08-23T00:57:21.296Z,21.05
2018-08-23T00:58:22.277Z,21.05
2018-08-23T00:59:22.434Z,21.04
2018-08-23T01:00:22.740Z,21.04
2018-08-23T01:01:22.965Z,21.03
2018-08-23T01:02:23.230Z,21.03
2018-08-23T01:03:23.660Z,21.03
2018-08-23T01:04:22.953Z,21.02
2018-08-23T01:05:23.101Z,21.01
2018-08-23T01:06:24.382Z,21.01
2018-08-23T01:07:24.602Z,21.01
2018-08-23T01:08:25.070Z,21.00
2018-08-23T01:09:25.426Z,21.00
2018-08-23T01:10:25.954Z,21.00
2018-08-23T01:11:26.205Z,20.99
2018-08-23T01:12:26.583Z,20.98
2018-08-23T01:13:26.925Z,20.97
2018-08-23T01:14:27.098Z,20.97
2018-08-23T01:15:27.274Z,20.96
2018-08-23T01:16:27.504Z,20.95
2018-08-23T01:17:27.733Z,20.94
2018-08-23T01:18:27.986Z,20.93
2018-08-23T01:19:28.194Z,20.93
2018-08-23T01:20:28.332Z,20.92
2018-08-23T01:21:28.550Z,20.91
2018-08-23T01:22:28.818Z,20.89
2018-08-23T01:23:29.080Z,20.88
2018-08-23T01:24:29.345Z,20.87
2018-08-23T01:25:29.530Z,20.86
2018-08-23T01:26:30.270Z,20.85
2018-08-23T01:27:30.935Z,20.83
2018-08-23T01:28:32.786Z,20.82
2018-08-23T01:29:32.101Z,20.81
2018-08-23T01:29:40.185Z,20.58
2018-08-23T01:30:41.313Z,20.58
2018-08-23T01:31:41.654Z,20.58
2018-08-23T01:32:41.903Z,20.58
2018-08-23T01:33:42.218Z,20.58
2018-08-23T01:34:42.429Z,20.58
2018-08-23T01:35:42.784Z,20.58
2018-08-23T01:36:43.559Z,20.58
2018-08-23T01:37:43.843Z,20.57
2018-08-23T01:38:44.257Z,20.57
2018-08-23T01:39:44.982Z,20.57
2018-08-23T01:40:45.201Z,20.56
2018-08-23T01:41:46.051Z,20.56
2018-08-23T01:42:46.247Z,20.55
2018-08-23T01:43:46.560Z,20.54
2018-08-23T01:44:45.799Z,20.53
2018-08-23T01:45:47.426Z,20.52
2018-08-23T01:46:48.022Z,20.50
2018-08-23T01:47:48.279Z,20.48
2018-08-23T01:48:48.660Z,20.46
2018-08-23T01:49:48.884Z,20.44
2018-08-23T01:50:49.721Z,20.42
2018-08-23T01:51:49.934Z,20.40
2018-08-23T01:52:50.141Z,20.38
2018-08-23T01:53:50.343Z,20.36
2018-08-23T01:54:50.720Z,20.34
2018-08-23T01:55:51.402Z,20.32
2018-08-23T01:56:51.662Z,20.31
2018-08-23T01:57:51.891Z,20.30
2018-08-23T01:58:52.087Z,20.28
2018-08-23T01:59:52.299Z,20.27
2018-08-23T02:00:52.530Z,20.26
2018-08-23T02:01:52.734Z,20.24
2018-08-23T02:02:53.046Z,20.23
2018-08-23T02:03:53.228Z,20.21
2018-08-23T02:04:53.490Z,20.20
2018-08-23T02:05:53.702Z,20.19
2018-08-23T02:06:54.120Z,20.18
2018-08-23T02:07:54.310Z,20.16
2018-08-23T02:08:54.546Z,20.15
2018-08-23T02:09:54.821Z,20.13
2018-08-23T02:10:55.096Z,20.12
2018-08-23T02:11:55.288Z,20.11
2018-08-23T02:12:04.579Z,19.93
2018-08-23T02:13:06.066Z,19.93
2018-08-23T02:14:06.338Z,19.93
2018-08-23T02:15:06.530Z,19.92
2018-08-23T02:16:07.154Z,19.91
2018-08-23T02:17:07.342Z,19.91
2018-08-23T02:18:07.483Z,19.90
2018-08-23T02:19:07.698Z,19.90
2018-08-23T02:20:08.020Z,19.89
2018-08-23T02:21:08.345Z,19.89
2018-08-23T02:22:08.737Z,19.88
2018-08-23T02:23:09.158Z,19.87
2018-08-23T02:24:09.372Z,19.87
2018-08-23T02:25:10.654Z,19.86
2018-08-23T02:26:10.006Z,19.86
2018-08-23T02:27:10.769Z,19.85
2018-08-23T02:28:11.003Z,19.84
2018-08-23T02:29:11.281Z,19.83
2018-08-23T02:30:11.671Z,19.81
2018-08-23T02:31:12.003Z,19.79
2018-08-23T02:32:12.282Z,19.78
2018-08-23T02:33:12.539Z,19.77
2018-08-23T02:34:12.958Z,19.76
2018-08-23T02:35:13.221Z,19.74
2018-08-23T02:36:13.497Z,19.73
2018-08-23T02:37:14.364Z,19.72
2018-08-23T02:38:14.609Z,19.71
2018-08-23T02:39:14.443Z,19.70
2018-08-23T02:40:15.902Z,19.69
2018-08-23T02:41:16.342Z,19.68
2018-08-23T02:42:16.573Z,19.66
2018-08-23T02:43:17.086Z,19.64
2018-08-23T02:44:17.345Z,19.62
2018-08-23T02:45:17.815Z,19.61
2018-08-23T02:46:18.630Z,19.60
2018-08-23T02:47:18.826Z,19.59
2018-08-23T02:48:19.170Z,19.57
2018-08-23T02:49:19.814Z,19.56
2018-08-23T02:50:20.073Z,19.55
2018-08-23T02:51:20.521Z,19.53
2018-08-23T02:52:20.982Z,19.52
2018-08-23T02:53:21.226Z,19.51
2018-08-23T02:54:21.568Z,19.50
2018-08-23T02:55:21.767Z,19.49
2018-08-23T02:56:22.085Z,19.48
2018-08-23T02:57:22.601Z,19.47
2018-08-23T02:57:30.596Z,19.31
2018-08-23T02:58:31.763Z,19.31
2018-08-23T02:59:31.988Z,19.31
2018-08-23T03:00:32.371Z,19.31
2018-08-23T03:01:31.695Z,19.31
2018-08-23T03:02:33.441Z,19.31
2018-08-23T03:03:34.354Z,19.31
2018-08-23T03:04:34.617Z,19.30
2018-08-23T03:05:34.978Z,19.30
2018-08-23T03:06:35.323Z,19.29
2018-08-23T03:07:35.788Z,19.28
2018-08-23T03:08:36.083Z,19.28
2018-08-23T03:09:37.475Z,19.27
2018-08-23T03:10:36.785Z,19.27
2018-08-23T03:11:37.070Z,19.27
2018-08-23T03:12:37.340Z,19.26
2018-08-23T03:13:37.934Z,19.25
2018-08-23T03:14:38.243Z,19.25
2018-08-23T03:15:39.069Z,19.24
2018-08-23T03:16:39.273Z,19.23
2018-08-23T03:17:39.541Z,19.23
2018-08-23T03:18:40.218Z,19.22
2018-08-23T03:19:40.464Z,19.22
2018-08-23T03:20:40.708Z,19.21
2018-08-23T03:21:41.116Z,19.20
2018-08-23T03:22:41.727Z,19.19
2018-08-23T03:23:42.082Z,19.18
2018-08-23T03:24:42.368Z,19.17
2018-08-23T03:25:42.611Z,19.16
2018-08-23T03:26:43.010Z,19.15
2018-08-23T03:27:43.398Z,19.13
2018-08-23T03:28:43.792Z,19.12
2018-08-23T03:29:44.204Z,19.11
2018-08-23T03:30:43.398Z,19.10
2018-08-23T03:31:44.613Z,19.09
2018-08-23T03:32:45.020Z,19.08
2018-08-23T03:33:45.640Z,19.07
2018-08-23T03:34:45.875Z,19.05
2018-08-23T03:35:45.331Z,19.04
2018-08-23T03:36:46.593Z,19.04
2018-08-23T03:37:47.047Z,19.03
2018-08-23T03:38:47.370Z,19.02
2018-08-23T03:39:47.632Z,19.02
2018-08-23T03:40:47.857Z,19.01
2018-08-23T03:41:48.150Z,19.01
2018-08-23T03:42:48.513Z,19.00
2018-08-23T03:43:47.710Z,19.00
2018-08-23T03:44:29.319Z,18.95
2018-08-23T03:45:29.498Z,18.95
2018-08-23T03:46:29.926Z,18.95
2018-08-23T03:47:30.103Z,18.95
2018-08-23T03:48:30.126Z,18.95
2018-08-23T03:49:30.489Z,18.95
2018-08-23T03:50:30.779Z,18.95
2018-08-23T03:51:31.042Z,18.94
2018-08-23T03:52:31.160Z,18.94
2018-08-23T03:53:31.075Z,18.94
2018-08-23T03:54:31.374Z,18.94
2018-08-23T03:55:32.591Z,18.94
2018-08-23T03:56:32.872Z,18.94
2018-08-23T03:57:33.115Z,18.94
2018-08-23T03:58:33.464Z,18.94
2018-08-23T03:59:34.158Z,18.94
2018-08-23T04:00:35.072Z,18.94
2018-08-23T04:01:35.387Z,18.93
2018-08-23T04:02:35.698Z,18.93
2018-08-23T04:03:35.887Z,18.92
2018-08-23T04:04:36.171Z,18.91
2018-08-23T04:05:36.410Z,18.90
2018-08-23T04:06:36.971Z,18.89
2018-08-23T04:07:37.796Z,18.88
2018-08-23T04:08:38.082Z,18.86
2018-08-23T04:09:38.772Z,18.85
2018-08-23T04:10:39.466Z,18.84
2018-08-23T04:11:39.794Z,18.83
2018-08-23T04:12:40.796Z,18.82
2018-08-23T04:13:41.029Z,18.81
2018-08-23T04:14:41.103Z,18.80
2018-08-23T04:15:41.299Z,18.79
2018-08-23T04:16:41.698Z,18.78
2018-08-23T04:17:41.953Z,18.77
2018-08-23T04:18:42.197Z,18.76
2018-08-23T04:19:42.463Z,18.75
2018-08-23T04:20:42.878Z,18.75
2018-08-23T04:21:43.189Z,18.74
2018-08-23T04:22:43.589Z,18.74
2018-08-23T04:23:42.774Z,18.73
2018-08-23T04:24:44.613Z,18.73
2018-08-23T04:25:44.853Z,18.72
2018-08-23T04:26:45.088Z,18.72
2018-08-23T04:27:45.632Z,18.71
2018-08-23T04:28:45.848Z,18.71
2018-08-23T04:29:46.281Z,18.70
2018-08-23T04:30:45.838Z,18.70
2018-08-23T04:31:47.097Z,18.70
2018-08-23T04:31:55.812Z,18.59
2018-08-23T04:32:56.164Z,18.59
2018-08-23T04:33:56.351Z,18.59
2018-08-23T04:34:56.635Z,18.58
2018-08-23T04:35:56.892Z,18.58
2018-08-23T04:36:57.233Z,18.58
2018-08-23T04:37:57.418Z,18.59
2018-08-23T04:38:57.884Z,18.58
2018-08-23T04:39:58.366Z,18.58
2018-08-23T04:40:58.638Z,18.57
2018-08-23T04:41:59.130Z,18.57
2018-08-23T04:42:59.423Z,18.56
2018-08-23T04:43:59.699Z,18.56
2018-08-23T04:44:59.782Z,18.55
2018-08-23T04:46:00.220Z,18.54
2018-08-23T04:47:00.633Z,18.54
2018-08-23T04:48:00.964Z,18.53
2018-08-23T04:49:01.359Z,18.52
2018-08-23T04:50:01.759Z,18.52
2018-08-23T04:51:02.107Z,18.52
2018-08-23T04:52:02.530Z,18.52
2018-08-23T04:53:03.221Z,18.51
2018-08-23T04:54:03.457Z,18.51
2018-08-23T04:55:03.788Z,18.50
2018-08-23T04:56:04.116Z,18.50
2018-08-23T04:57:04.342Z,18.48
2018-08-23T04:58:04.556Z,18.48
2018-08-23T04:59:04.829Z,18.47
2018-08-23T05:00:05.248Z,18.46
2018-08-23T05:01:06.081Z,18.46
2018-08-23T05:02:06.413Z,18.46
2018-08-23T05:03:06.865Z,18.46
2018-08-23T05:04:07.103Z,18.45
2018-08-23T05:05:06.565Z,18.45
2018-08-23T05:06:07.918Z,18.45
2018-08-23T05:07:08.196Z,18.45
2018-08-23T05:08:08.567Z,18.45
2018-08-23T05:09:08.994Z,18.45
2018-08-23T05:10:08.184Z,18.44
2018-08-23T05:11:09.495Z,18.44
2018-08-23T05:12:09.880Z,18.45
2018-08-23T05:13:10.176Z,18.44
2018-08-23T05:14:10.592Z,18.44
2018-08-23T05:15:10.143Z,18.44
2018-08-23T05:16:12.016Z,18.44
2018-08-23T05:17:12.256Z,18.44
2018-08-23T05:17:24.282Z,18.43
2018-08-23T05:18:25.446Z,18.43
2018-08-23T05:19:25.679Z,18.43
2018-08-23T05:20:26.048Z,18.43
2018-08-23T05:21:26.562Z,18.43
2018-08-23T05:22:31.855Z,18.43
2018-08-23T05:23:27.191Z,18.42
2018-08-23T05:24:27.686Z,18.42
2018-08-23T05:25:27.964Z,18.42
2018-08-23T05:26:28.234Z,18.42
2018-08-23T05:27:28.469Z,18.42
2018-08-23T05:28:28.798Z,18.42
2018-08-23T05:29:29.117Z,18.42
2018-08-23T05:30:29.529Z,18.42
2018-08-23T05:31:29.829Z,18.42
2018-08-23T05:32:30.182Z,18.42
2018-08-23T05:33:30.468Z,18.42
2018-08-23T05:34:30.772Z,18.43
2018-08-23T05:35:31.019Z,18.43
2018-08-23T05:36:31.265Z,18.44
2018-08-23T05:37:31.593Z,18.46
2018-08-23T05:38:31.895Z,18.49
2018-08-23T05:39:32.109Z,18.52
2018-08-23T05:40:32.346Z,18.56
2018-08-23T05:41:32.639Z,18.60
2018-08-23T05:42:32.901Z,18.65
2018-08-23T05:43:33.804Z,18.70
2018-08-23T05:44:34.040Z,18.76
2018-08-23T05:45:34.360Z,18.82
2018-08-23T05:46:34.857Z,18.89
2018-08-23T05:47:35.174Z,18.97
2018-08-23T05:48:34.412Z,19.04
2018-08-23T05:49:35.662Z,19.12
2018-08-23T05:50:35.995Z,19.19
2018-08-23T05:51:36.175Z,19.27
2018-08-23T05:52:36.445Z,19.35
2018-08-23T05:53:36.740Z,19.43
2018-08-23T05:54:37.046Z,19.51
2018-08-23T05:55:37.290Z,19.59
2018-08-23T05:56:37.571Z,19.67
2018-08-23T05:57:37.869Z,19.75
2018-08-23T05:58:38.058Z,19.83
2018-08-23T05:59:38.206Z,19.92
2018-08-23T06:00:38.460Z,20.02
2018-08-23T06:01:38.762Z,20.10
2018-08-23T06:01:47.457Z,21.68
2018-08-23T06:02:47.908Z,21.68
2018-08-23T06:03:47.197Z,21.68
2018-08-23T06:04:48.568Z,21.69
2018-08-23T06:05:48.933Z,21.71
2018-08-23T06:06:49.265Z,21.73
2018-08-23T06:07:49.579Z,21.74
2018-08-23T06:08:49.996Z,21.78
2018-08-23T06:09:50.283Z,21.83
2018-08-23T06:10:50.517Z,21.88
2018-08-23T06:11:50.604Z,21.94
2018-08-23T06:12:50.742Z,22.00
2018-08-23T06:13:50.931Z,22.06
2018-08-23T06:14:51.498Z,22.13
2018-08-23T06:15:51.749Z,22.19
2018-08-23T06:16:52.158Z,22.25
2018-08-23T06:17:52.448Z,22.31
2018-08-23T06:18:52.922Z,22.38
2018-08-23T06:19:53.429Z,22.46
2018-08-23T06:20:52.733Z,22.53
2018-08-23T06:21:54.008Z,22.62
2018-08-23T06:22:54.277Z,22.72
2018-08-23T06:23:54.576Z,22.82
2018-08-23T06:24:54.829Z,22.92
2018-08-23T06:25:55.514Z,23.03
2018-08-23T06:26:54.821Z,23.13
2018-08-23T06:27:56.394Z,23.23
2018-08-23T06:28:56.800Z,23.32
2018-08-23T06:29:57.519Z,23.40
2018-08-23T06:30:58.079Z,23.47
2018-08-23T06:31:58.347Z,23.54
2018-08-23T06:32:58.750Z,23.61
2018-08-23T06:33:57.893Z,23.66
2018-08-23T06:34:59.127Z,23.70
2018-08-23T06:35:59.357Z,23.76
2018-08-23T06:36:59.834Z,23.82
2018-08-23T06:38:00.289Z,23.88
2018-08-23T06:39:00.522Z,23.93
2018-08-23T06:40:00.855Z,23.97
2018-08-23T06:41:01.056Z,23.98
2018-08-23T06:42:01.389Z,24.01
2018-08-23T06:43:02.302Z,24.04
2018-08-23T06:44:02.539Z,24.07
2018-08-23T06:45:02.794Z,24.09
2018-08-23T06:46:03.170Z,24.09
2018-08-23T06:47:02.381Z,24.12
2018-08-23T06:48:03.836Z,24.14
2018-08-23T06:49:04.225Z,24.16
2018-08-23T06:50:04.501Z,24.18
2018-08-23T06:50:13.202Z,24.24
2018-08-23T06:51:14.494Z,24.24
2018-08-23T06:52:13.747Z,24.24
2018-08-23T06:53:14.985Z,24.26
2018-08-23T06:54:15.227Z,24.29
2018-08-23T06:55:15.605Z,24.32
2018-08-23T06:56:15.900Z,24.36
2018-08-23T06:57:16.208Z,24.38
2018-08-23T06:58:16.444Z,24.37
2018-08-23T06:59:16.802Z,24.38
2018-08-23T07:00:17.101Z,24.41
2018-08-23T07:01:17.430Z,24.46
2018-08-23T07:02:16.576Z,24.50
2018-08-23T07:03:17.776Z,24.56
2018-08-23T07:04:18.190Z,24.61
2018-08-23T07:05:18.734Z,24.66
2018-08-23T07:06:19.254Z,24.70
2018-08-23T07:07:19.610Z,24.74
2018-08-23T07:08:19.795Z,24.78
2018-08-23T07:09:20.176Z,24.82
2018-08-23T07:10:20.517Z,24.86
2018-08-23T07:11:20.875Z,24.91
2018-08-23T07:12:21.470Z,24.97
2018-08-23T07:13:22.053Z,25.04
2018-08-23T07:14:22.448Z,25.10
2018-08-23T07:15:23.003Z,25.18
2018-08-23T07:16:23.401Z,25.28
2018-08-23T07:17:24.050Z,25.38
2018-08-23T07:18:23.267Z,25.49
2018-08-23T07:19:24.710Z,25.61
2018-08-23T07:20:24.884Z,25.73
2018-08-23T07:21:25.192Z,25.86
2018-08-23T07:22:25.413Z,25.99
2018-08-23T07:23:25.819Z,26.14
2018-08-23T07:24:26.071Z,26.28
2018-08-23T07:25:26.410Z,26.43
2018-08-23T07:26:26.896Z,26.58
2018-08-23T07:27:26.079Z,26.74
2018-08-23T07:28:27.363Z,26.90
2018-08-23T07:29:27.601Z,27.07
2018-08-23T07:30:28.369Z,27.24
2018-08-23T07:31:28.794Z,27.41
2018-08-23T07:32:27.925Z,27.57
2018-08-23T07:33:29.691Z,27.72
2018-08-23T07:34:29.939Z,27.85
2018-08-23T07:35:30.276Z,28.00
2018-08-23T07:35:39.130Z,30.23
2018-08-23T07:36:40.254Z,30.23
2018-08-23T07:37:40.641Z,30.25
2018-08-23T07:38:41.082Z,30.25
2018-08-23T07:39:41.451Z,30.27
2018-08-23T07:40:41.843Z,30.26
2018-08-23T07:41:42.365Z,30.24
2018-08-23T07:42:42.615Z,30.23
2018-08-23T07:43:42.927Z,30.21
2018-08-23T07:44:43.075Z,30.19
2018-08-23T07:45:43.332Z,30.18
2018-08-23T07:46:43.724Z,30.14
2018-08-23T07:47:43.903Z,30.11
2018-08-23T07:48:44.211Z,30.07
2018-08-23T07:49:43.467Z,30.03
2018-08-23T07:50:43.719Z,29.98
2018-08-23T07:51:45.074Z,29.94
2018-08-23T07:52:45.599Z,29.92
2018-08-23T07:53:44.731Z,29.89
2018-08-23T07:54:45.925Z,29.87
2018-08-23T07:55:45.146Z,29.84
2018-08-23T07:56:46.497Z,29.82
2018-08-23T07:57:46.781Z,29.82
2018-08-23T07:58:47.080Z,29.84
2018-08-23T07:59:47.566Z,29.84
2018-08-23T08:00:48.258Z,29.86
2018-08-23T08:01:48.641Z,29.85
2018-08-23T08:02:49.008Z,29.85
2018-08-23T08:03:49.278Z,29.85
2018-08-23T08:04:49.483Z,29.85
2018-08-23T08:05:49.736Z,29.86
2018-08-23T08:06:49.962Z,29.87
2018-08-23T08:07:50.288Z,29.85
2018-08-23T08:08:50.568Z,29.85
2018-08-23T08:09:50.918Z,29.86
2018-08-23T08:10:51.116Z,29.85
2018-08-23T08:11:51.354Z,29.86
2018-08-23T08:12:52.095Z,29.86
2018-08-23T08:13:51.223Z,29.83
2018-08-23T08:14:52.484Z,29.82
2018-08-23T08:15:51.598Z,29.80
2018-08-23T08:16:53.178Z,29.79
2018-08-23T08:17:53.320Z,29.79
2018-08-23T08:18:52.584Z,29.78
2018-08-23T08:19:53.787Z,29.78
2018-08-23T08:20:54.092Z,29.78
2018-08-23T08:21:53.427Z,29.78
2018-08-23T08:22:55.021Z,29.78
2018-08-23T08:23:54.241Z,29.79
2018-08-23T08:24:55.999Z,29.80
2018-08-23T08:25:56.323Z,29.81
2018-08-23T08:26:04.411Z,29.86
2018-08-23T08:27:05.811Z,29.86
2018-08-23T08:28:05.131Z,29.85
2018-08-23T08:29:06.431Z,29.85
2018-08-23T08:30:06.673Z,29.84
2018-08-23T08:31:06.989Z,29.84
2018-08-23T08:32:07.153Z,29.83
2018-08-23T08:33:07.530Z,29.82
2018-08-23T08:34:07.818Z,29.81
2018-08-23T08:35:08.551Z,29.80
2018-08-23T08:36:07.758Z,29.76
2018-08-23T08:37:08.948Z,29.73
2018-08-23T08:38:09.315Z,29.67
2018-08-23T08:39:09.563Z,29.60
2018-08-23T08:40:09.763Z,29.53
2018-08-23T08:41:10.059Z,29.47
2018-08-23T08:42:10.247Z,29.41
2018-08-23T08:43:10.603Z,29.35
2018-08-23T08:44:10.800Z,29.29
2018-08-23T08:45:11.085Z,29.24
2018-08-23T08:46:11.383Z,29.20
2018-08-23T08:47:11.661Z,29.16
2018-08-23T08:48:11.942Z,29.12
2018-08-23T08:49:12.339Z,29.08
2018-08-23T08:50:12.579Z,29.03
2018-08-23T08:51:13.129Z,29.00
2018-08-23T08:52:13.386Z,28.97
2018-08-23T08:53:13.725Z,28.93
2018-08-23T08:54:13.230Z,28.90
2018-08-23T08:55:14.703Z,28.86
2018-08-23T08:56:15.047Z,28.82
2018-08-23T08:57:15.728Z,28.78
2018-08-23T08:58:15.318Z,28.74
2018-08-23T08:59:16.557Z,28.70
2018-08-23T09:00:16.816Z,28.67
2018-08-23T09:01:17.196Z,28.64
2018-08-23T09:02:17.565Z,28.62
2018-08-23T09:03:17.973Z,28.60
2018-08-23T09:04:17.302Z,28.60
2018-08-23T09:05:18.629Z,28.60
2018-08-23T09:06:19.146Z,28.60
2018-08-23T09:07:19.386Z,28.60
2018-08-23T09:08:19.656Z,28.60
2018-08-23T09:09:20.237Z,28.60
2018-08-23T09:10:20.518Z,28.59
2018-08-23T09:11:20.990Z,28.59
2018-08-23T09:12:21.362Z,28.59
2018-08-23T09:12:29.431Z,28.74
2018-08-23T09:13:31.040Z,28.74
2018-08-23T09:14:31.436Z,28.74
2018-08-23T09:15:32.285Z,28.73
2018-08-23T09:16:32.623Z,28.74
2018-08-23T09:17:33.045Z,28.74
2018-08-23T09:18:33.481Z,28.75
2018-08-23T09:19:32.695Z,28.77
2018-08-23T09:20:34.150Z,28.79
2018-08-23T09:21:33.325Z,28.81
2018-08-23T09:22:34.870Z,28.84
2018-08-23T09:23:35.366Z,28.86
2018-08-23T09:24:35.575Z,28.89
2018-08-23T09:25:35.812Z,28.91
2018-08-23T09:26:36.072Z,28.93
2018-08-23T09:27:36.535Z,28.95
2018-08-23T09:28:36.793Z,28.97
2018-08-23T09:29:37.091Z,28.99
2018-08-23T09:30:37.590Z,29.01
2018-08-23T09:31:37.861Z,29.03
2018-08-23T09:32:38.209Z,29.06
2018-08-23T09:33:38.516Z,29.08
2018-08-23T09:34:38.743Z,29.09
2018-08-23T09:35:39.206Z,29.12
2018-08-23T09:36:39.785Z,29.14
2018-08-23T09:37:40.213Z,29.16
2018-08-23T09:38:40.584Z,29.17
2018-08-23T09:39:41.139Z,29.19
2018-08-23T09:40:41.604Z,29.20
2018-08-23T09:41:42.063Z,29.22
2018-08-23T09:42:42.789Z,29.23
2018-08-23T09:43:43.335Z,29.25
2018-08-23T09:44:43.583Z,29.28
2018-08-23T09:45:44.242Z,29.30
2018-08-23T09:46:44.870Z,29.30
2018-08-23T09:47:45.659Z,29.30
2018-08-23T09:48:45.680Z,29.31
2018-08-23T09:49:45.945Z,29.32
2018-08-23T09:50:46.371Z,29.31
2018-08-23T09:51:45.590Z,29.30
2018-08-23T09:52:46.906Z,29.29
2018-08-23T09:53:47.089Z,29.30
2018-08-23T09:54:47.632Z,29.30
2018-08-23T09:55:47.874Z,29.31
2018-08-23T09:56:48.222Z,29.32
2018-08-23T09:57:48.885Z,29.32
2018-08-23T09:57:57.578Z,29.39
2018-08-23T09:58:59.046Z,29.39
2018-08-23T09:59:58.304Z,29.40
2018-08-23T10:00:59.475Z,29.39
2018-08-23T10:01:59.835Z,29.39
2018-08-23T10:03:00.213Z,29.39
2018-08-23T10:04:00.494Z,29.39
2018-08-23T10:05:00.973Z,29.40
2018-08-23T10:06:01.321Z,29.40
2018-08-23T10:07:02.242Z,29.41
2018-08-23T10:08:02.689Z,29.40
2018-08-23T10:09:02.965Z,29.40
2018-08-23T10:10:03.518Z,29.40
2018-08-23T10:11:03.743Z,29.40
2018-08-23T10:12:04.393Z,29.40
2018-08-23T10:13:04.638Z,29.41
2018-08-23T10:14:04.849Z,29.41
2018-08-23T10:15:05.264Z,29.42
2018-08-23T10:16:05.482Z,29.42
2018-08-23T10:17:06.073Z,29.43
2018-08-23T10:18:06.319Z,29.43
2018-08-23T10:19:06.912Z,29.44
2018-08-23T10:20:07.214Z,29.46
2018-08-23T10:21:07.642Z,29.48
2018-08-23T10:22:08.292Z,29.50
2018-08-23T10:23:08.419Z,29.51
2018-08-23T10:24:08.689Z,29.52
2018-08-23T10:25:08.892Z,29.52
2018-08-23T10:26:09.130Z,29.53
2018-08-23T10:27:09.408Z,29.53
2018-08-23T10:28:10.278Z,29.54
2018-08-23T10:29:11.171Z,29.55
2018-08-23T10:30:11.380Z,29.57
2018-08-23T10:31:15.615Z,29.59
2018-08-23T10:32:11.217Z,29.60
2018-08-23T10:33:11.406Z,29.60
2018-08-23T10:34:12.778Z,29.61
2018-08-23T10:35:13.114Z,29.62
2018-08-23T10:36:13.362Z,29.64
2018-08-23T10:37:14.326Z,29.65
2018-08-23T10:38:14.705Z,29.67
2018-08-23T10:39:13.946Z,29.68
2018-08-23T10:40:15.722Z,29.69
2018-08-23T10:41:15.911Z,29.71
2018-08-23T10:42:16.158Z,29.72
2018-08-23T10:43:16.464Z,29.72
2018-08-23T10:43:27.518Z,29.68
2018-08-23T10:44:28.723Z,29.68
2018-08-23T10:45:28.058Z,29.67
2018-08-23T10:46:29.320Z,29.67
2018-08-23T10:47:29.554Z,29.67
2018-08-23T10:48:29.805Z,29.67
2018-08-23T10:49:30.116Z,29.68
2018-08-23T10:50:30.469Z,29.69
2018-08-23T10:51:29.831Z,29.70
2018-08-23T10:52:31.023Z,29.70
2018-08-23T10:53:31.207Z,29.72
2018-08-23T10:54:30.460Z,29.74
2018-08-23T10:55:31.709Z,29.77
2018-08-23T10:56:31.974Z,29.78
2018-08-23T10:57:32.867Z,29.81
2018-08-23T10:58:33.235Z,29.83
2018-08-23T10:59:33.442Z,29.86
2018-08-23T11:00:33.673Z,29.89
2018-08-23T11:01:34.155Z,29.92
2018-08-23T11:02:35.086Z,29.95
2018-08-23T11:03:35.497Z,29.99
2018-08-23T11:04:35.640Z,30.01
2018-08-23T11:05:35.890Z,30.05
2018-08-23T11:06:36.362Z,30.08
2018-08-23T11:07:36.831Z,30.10
2018-08-23T11:08:37.256Z,30.13
2018-08-23T11:09:37.543Z,30.17
2018-08-23T11:10:38.008Z,30.20
2018-08-23T11:11:38.085Z,30.22
2018-08-23T11:12:38.452Z,30.25
2018-08-23T11:13:38.583Z,30.27
2018-08-23T11:14:38.913Z,30.30
2018-08-23T11:15:39.177Z,30.32
2018-08-23T11:16:39.531Z,30.32
2018-08-23T11:17:38.680Z,30.31
2018-08-23T11:18:40.051Z,30.30
2018-08-23T11:19:40.491Z,30.28
2018-08-23T11:20:41.007Z,30.27
2018-08-23T11:21:41.283Z,30.26
2018-08-23T11:22:41.623Z,30.25
2018-08-23T11:23:41.982Z,30.25
2018-08-23T11:24:42.168Z,30.25
2018-08-23T11:25:42.525Z,30.25
2018-08-23T11:26:42.839Z,30.25
2018-08-23T11:27:43.091Z,30.26
2018-08-23T11:28:43.824Z,30.27
2018-08-23T11:28:52.710Z,30.39
2018-08-23T11:29:53.890Z,30.39
2018-08-23T11:30:53.919Z,30.40
2018-08-23T11:31:54.246Z,30.42
2018-08-23T11:32:54.440Z,30.44
2018-08-23T11:33:56.135Z,30.45
2018-08-23T11:34:56.458Z,30.46
2018-08-23T11:35:55.656Z,30.48
2018-08-23T11:36:56.967Z,30.49
2018-08-23T11:37:57.346Z,30.50
2018-08-23T11:38:57.543Z,30.52
2018-08-23T11:39:57.941Z,30.54
2018-08-23T11:40:58.385Z,30.55
2018-08-23T11:41:58.887Z,30.56
2018-08-23T11:42:59.437Z,30.57
2018-08-23T11:43:59.652Z,30.58
2018-08-23T11:44:59.964Z,30.58
2018-08-23T11:46:00.324Z,30.59
2018-08-23T11:47:00.599Z,30.61
2018-08-23T11:48:00.788Z,30.62
2018-08-23T11:49:01.597Z,30.63
2018-08-23T11:50:00.969Z,30.65
2018-08-23T11:51:02.341Z,30.66
2018-08-23T11:52:02.668Z,30.67
2018-08-23T11:53:03.191Z,30.66
2018-08-23T11:54:02.508Z,30.67
2018-08-23T11:55:03.745Z,30.67
2018-08-23T11:56:04.080Z,30.67
2018-08-23T11:57:04.463Z,30.68
2018-08-23T11:58:04.734Z,30.69
2018-08-23T11:59:03.970Z,30.71
2018-08-23T12:00:04.177Z,30.73
2018-08-23T12:01:04.376Z,30.75
2018-08-23T12:02:05.752Z,30.76
2018-08-23T12:03:06.066Z,30.77
2018-08-23T12:04:06.495Z,30.79
2018-08-23T12:05:06.756Z,30.81
2018-08-23T12:06:06.927Z,30.83
2018-08-23T12:07:07.296Z,30.85
2018-08-23T12:08:07.615Z,30.87
2018-08-23T12:09:07.820Z,30.89
2018-08-23T12:10:07.356Z,30.92
2018-08-23T12:11:07.739Z,30.93
2018-08-23T12:12:09.124Z,30.96
2018-08-23T12:13:08.440Z,30.99
2018-08-23T12:14:10.160Z,31.00
2018-08-23T12:15:10.366Z,31.02
2018-08-23T12:16:10.673Z,31.05
2018-08-23T12:17:11.263Z,31.08
2018-08-23T12:18:12.007Z,31.11
2018-08-23T12:19:12.297Z,31.13
2018-08-23T12:20:12.786Z,31.12
2018-08-23T12:21:13.153Z,31.12
2018-08-23T12:21:21.860Z,30.98
2018-08-23T12:22:23.052Z,30.98
2018-08-23T12:23:23.083Z,30.98
2018-08-23T12:24:23.392Z,30.98
2018-08-23T12:25:23.657Z,30.98
2018-08-23T12:26:23.956Z,30.98
2018-08-23T12:27:24.284Z,30.99
2018-08-23T12:28:24.624Z,31.00
2018-08-23T12:29:25.130Z,31.01
2018-08-23T12:30:25.553Z,31.04
2018-08-23T12:31:25.861Z,31.05
2018-08-23T12:32:26.142Z,31.07
2018-08-23T12:33:26.797Z,31.08
2018-08-23T12:34:27.379Z,31.08
2018-08-23T12:35:27.839Z,31.10
2018-08-23T12:36:28.178Z,31.11
2018-08-23T12:37:29.006Z,31.13
2018-08-23T12:38:29.353Z,31.15
2018-08-23T12:39:30.193Z,31.17
2018-08-23T12:40:30.558Z,31.21
2018-08-23T12:41:30.780Z,31.23
2018-08-23T12:42:31.160Z,31.25
2018-08-23T12:43:31.602Z,31.27
2018-08-23T12:44:30.763Z,31.29